sensor_id;sensor_type;location;lat;lon;timestamp;P1;durP1;ratioP1;P2;durP2;ratioP2
10191;SDS011;17580;50.850;4.504;2023-09-30T00:00:09;2.47;;;2.27;;
10191;SDS011;17580;50.850;4.504;2023-09-30T00:02:36;2.40;;;2.23;;
10191;SDS011;17580;50.850;4.504;2023-09-30T00:05:04;2.70;;;2.50;;
10191;SDS011;17580;50.850;4.504;2023-09-30T00:07:31;2.27;;;2.10;;
10191;SDS011;17580;50.850;4.504;2023-09-30T00:09:58;3.93;;;2.60;;
10191;SDS011;17580;50.850;4.504;2023-09-30T00:12:27;3.90;;;2.10;;
10191;SDS011;17580;50.850;4.504;2023-09-30T00:14:54;5.50;;;2.53;;
10191;SDS011;17580;50.850;4.504;2023-09-30T00:17:21;2.40;;;2.20;;
10191;SDS011;17580;50.850;4.504;2023-09-30T00:19:49;2.17;;;2.00;;
10191;SDS011;17580;50.850;4.504;2023-09-30T00:22:16;2.20;;;2.00;;
10191;SDS011;17580;50.850;4.504;2023-09-30T00:24:43;2.50;;;2.13;;
10191;SDS011;17580;50.850;4.504;2023-09-30T00:27:10;4.10;;;2.43;;
10191;SDS011;17580;50.850;4.504;2023-09-30T00:29:39;6.07;;;2.20;;
10191;SDS011;17580;50.850;4.504;2023-09-30T00:32:06;3.30;;;2.47;;
10191;SDS011;17580;50.850;4.504;2023-09-30T00:34:33;2.00;;;1.90;;
10191;SDS011;17580;50.850;4.504;2023-09-30T00:37:01;3.63;;;2.40;;
10191;SDS011;17580;50.850;4.504;2023-09-30T00:39:28;2.50;;;2.30;;
10191;SDS011;17580;50.850;4.504;2023-09-30T00:41:56;2.63;;;2.27;;
10191;SDS011;17580;50.850;4.504;2023-09-30T00:44:24;5.80;;;2.67;;
10191;SDS011;17580;50.850;4.504;2023-09-30T00:46:53;3.87;;;2.23;;
10191;SDS011;17580;50.850;4.504;2023-09-30T00:49:21;2.10;;;2.00;;
10191;SDS011;17580;50.850;4.504;2023-09-30T00:51:49;4.00;;;2.17;;
10191;SDS011;17580;50.850;4.504;2023-09-30T00:54:17;3.83;;;2.30;;
10191;SDS011;17580;50.850;4.504;2023-09-30T00:56:45;4.70;;;2.20;;
10191;SDS011;17580;50.850;4.504;2023-09-30T00:59:12;3.17;;;2.50;;
10191;SDS011;17580;50.850;4.504;2023-09-30T01:01:40;2.43;;;1.87;;
10191;SDS011;17580;50.850;4.504;2023-09-30T01:04:10;3.10;;;2.10;;
10191;SDS011;17580;50.850;4.504;2023-09-30T01:06:38;2.77;;;2.43;;
10191;SDS011;17580;50.850;4.504;2023-09-30T01:09:05;2.70;;;2.50;;
10191;SDS011;17580;50.850;4.504;2023-09-30T01:11:32;2.80;;;2.60;;
10191;SDS011;17580;50.850;4.504;2023-09-30T01:13:59;2.30;;;2.10;;
10191;SDS011;17580;50.850;4.504;2023-09-30T01:16:27;2.67;;;2.07;;
10191;SDS011;17580;50.850;4.504;2023-09-30T01:18:54;2.93;;;2.73;;
10191;SDS011;17580;50.850;4.504;2023-09-30T01:21:23;2.67;;;2.20;;
10191;SDS011;17580;50.850;4.504;2023-09-30T01:23:54;3.17;;;2.97;;
10191;SDS011;17580;50.850;4.504;2023-09-30T01:26:21;2.90;;;2.60;;
10191;SDS011;17580;50.850;4.504;2023-09-30T01:28:49;3.13;;;2.40;;
10191;SDS011;17580;50.850;4.504;2023-09-30T01:31:16;2.57;;;2.47;;
10191;SDS011;17580;50.850;4.504;2023-09-30T01:33:43;4.10;;;2.57;;
10191;SDS011;17580;50.850;4.504;2023-09-30T01:36:10;3.30;;;3.00;;
10191;SDS011;17580;50.850;4.504;2023-09-30T01:38:37;4.00;;;2.77;;
10191;SDS011;17580;50.850;4.504;2023-09-30T01:41:07;3.13;;;2.87;;
10191;SDS011;17580;50.850;4.504;2023-09-30T01:43:34;4.23;;;3.00;;
10191;SDS011;17580;50.850;4.504;2023-09-30T01:46:02;2.63;;;2.43;;
10191;SDS011;17580;50.850;4.504;2023-09-30T01:48:31;3.70;;;2.90;;
10191;SDS011;17580;50.850;4.504;2023-09-30T01:50:58;4.03;;;2.77;;
10191;SDS011;17580;50.850;4.504;2023-09-30T01:53:26;3.20;;;2.90;;
10191;SDS011;17580;50.850;4.504;2023-09-30T01:55:53;4.80;;;3.20;;
10191;SDS011;17580;50.850;4.504;2023-09-30T01:58:22;2.63;;;2.43;;
10191;SDS011;17580;50.850;4.504;2023-09-30T02:00:50;3.87;;;3.57;;
10191;SDS011;17580;50.850;4.504;2023-09-30T02:03:17;5.47;;;3.30;;
10191;SDS011;17580;50.850;4.504;2023-09-30T02:05:44;3.50;;;3.10;;
10191;SDS011;17580;50.850;4.504;2023-09-30T02:08:11;3.13;;;2.93;;
10191;SDS011;17580;50.850;4.504;2023-09-30T02:10:38;5.23;;;3.40;;
10191;SDS011;17580;50.850;4.504;2023-09-30T02:13:06;3.83;;;3.03;;
10191;SDS011;17580;50.850;4.504;2023-09-30T02:15:35;2.53;;;2.33;;
10191;SDS011;17580;50.850;4.504;2023-09-30T02:18:02;3.67;;;3.37;;
10191;SDS011;17580;50.850;4.504;2023-09-30T02:20:29;2.90;;;2.70;;
10191;SDS011;17580;50.850;4.504;2023-09-30T02:22:57;4.40;;;3.13;;
10191;SDS011;17580;50.850;4.504;2023-09-30T02:25:27;4.27;;;3.20;;
10191;SDS011;17580;50.850;4.504;2023-09-30T02:27:55;4.67;;;3.30;;
10191;SDS011;17580;50.850;4.504;2023-09-30T02:30:22;3.20;;;2.93;;
10191;SDS011;17580;50.850;4.504;2023-09-30T02:32:51;8.70;;;2.90;;
10191;SDS011;17580;50.850;4.504;2023-09-30T02:35:18;3.07;;;2.87;;
10191;SDS011;17580;50.850;4.504;2023-09-30T02:37:45;2.93;;;2.73;;
10191;SDS011;17580;50.850;4.504;2023-09-30T02:40:13;3.77;;;2.77;;
10191;SDS011;17580;50.850;4.504;2023-09-30T02:42:42;3.37;;;3.17;;
10191;SDS011;17580;50.850;4.504;2023-09-30T02:45:10;3.73;;;3.43;;
10191;SDS011;17580;50.850;4.504;2023-09-30T02:47:38;6.57;;;3.67;;
10191;SDS011;17580;50.850;4.504;2023-09-30T02:50:08;4.23;;;2.93;;
10191;SDS011;17580;50.850;4.504;2023-09-30T02:52:36;3.90;;;2.93;;
10191;SDS011;17580;50.850;4.504;2023-09-30T02:55:06;7.47;;;3.40;;
10191;SDS011;17580;50.850;4.504;2023-09-30T02:57:33;3.80;;;3.50;;
10191;SDS011;17580;50.850;4.504;2023-09-30T03:00:01;6.17;;;3.10;;
10191;SDS011;17580;50.850;4.504;2023-09-30T03:02:37;2.97;;;2.77;;
10191;SDS011;17580;50.850;4.504;2023-09-30T03:05:05;3.73;;;3.40;;
10191;SDS011;17580;50.850;4.504;2023-09-30T03:07:34;3.90;;;2.90;;
10191;SDS011;17580;50.850;4.504;2023-09-30T03:10:01;3.80;;;3.33;;
10191;SDS011;17580;50.850;4.504;2023-09-30T03:12:30;3.30;;;3.00;;
10191;SDS011;17580;50.850;4.504;2023-09-30T03:14:57;3.47;;;3.17;;
10191;SDS011;17580;50.850;4.504;2023-09-30T03:17:24;3.67;;;3.37;;
10191;SDS011;17580;50.850;4.504;2023-09-30T03:19:53;3.27;;;2.97;;
10191;SDS011;17580;50.850;4.504;2023-09-30T03:22:22;3.17;;;2.87;;
10191;SDS011;17580;50.850;4.504;2023-09-30T03:24:51;10.30;;;3.03;;
10191;SDS011;17580;50.850;4.504;2023-09-30T03:27:19;4.07;;;3.07;;
10191;SDS011;17580;50.850;4.504;2023-09-30T03:29:47;3.40;;;3.20;;
10191;SDS011;17580;50.850;4.504;2023-09-30T03:32:14;6.20;;;3.33;;
10191;SDS011;17580;50.850;4.504;2023-09-30T03:34:41;4.03;;;2.90;;
10191;SDS011;17580;50.850;4.504;2023-09-30T03:37:11;5.17;;;3.17;;
10191;SDS011;17580;50.850;4.504;2023-09-30T03:39:38;5.00;;;3.10;;
10191;SDS011;17580;50.850;4.504;2023-09-30T03:42:07;3.83;;;2.87;;
10191;SDS011;17580;50.850;4.504;2023-09-30T03:44:36;3.80;;;2.90;;
10191;SDS011;17580;50.850;4.504;2023-09-30T03:47:04;4.33;;;3.03;;
10191;SDS011;17580;50.850;4.504;2023-09-30T03:49:32;3.03;;;2.80;;
10191;SDS011;17580;50.850;4.504;2023-09-30T03:51:59;6.87;;;3.37;;
10191;SDS011;17580;50.850;4.504;2023-09-30T03:54:27;4.43;;;3.20;;
10191;SDS011;17580;50.850;4.504;2023-09-30T03:56:55;3.63;;;3.00;;
10191;SDS011;17580;50.850;4.504;2023-09-30T03:59:23;4.47;;;2.83;;
10191;SDS011;17580;50.850;4.504;2023-09-30T04:01:51;2.97;;;2.77;;
10191;SDS011;17580;50.850;4.504;2023-09-30T04:04:19;3.27;;;2.80;;
10191;SDS011;17580;50.850;4.504;2023-09-30T04:06:47;4.80;;;2.70;;
10191;SDS011;17580;50.850;4.504;2023-09-30T04:09:16;3.87;;;2.70;;
10191;SDS011;17580;50.850;4.504;2023-09-30T04:11:44;4.33;;;3.03;;
10191;SDS011;17580;50.850;4.504;2023-09-30T04:14:11;3.97;;;3.30;;
10191;SDS011;17580;50.850;4.504;2023-09-30T04:16:40;6.17;;;3.30;;
10191;SDS011;17580;50.850;4.504;2023-09-30T04:19:08;6.00;;;3.03;;
10191;SDS011;17580;50.850;4.504;2023-09-30T04:21:35;3.83;;;2.80;;
10191;SDS011;17580;50.850;4.504;2023-09-30T04:24:04;5.20;;;3.03;;
10191;SDS011;17580;50.850;4.504;2023-09-30T04:26:32;3.23;;;3.03;;
10191;SDS011;17580;50.850;4.504;2023-09-30T04:28:59;2.83;;;2.63;;
10191;SDS011;17580;50.850;4.504;2023-09-30T04:31:35;5.33;;;2.90;;
10191;SDS011;17580;50.850;4.504;2023-09-30T04:34:05;3.00;;;2.80;;
10191;SDS011;17580;50.850;4.504;2023-09-30T04:36:32;4.87;;;2.70;;
10191;SDS011;17580;50.850;4.504;2023-09-30T04:39:01;3.90;;;2.90;;
10191;SDS011;17580;50.850;4.504;2023-09-30T04:41:29;4.93;;;3.27;;
10191;SDS011;17580;50.850;4.504;2023-09-30T04:43:56;3.53;;;3.20;;
10191;SDS011;17580;50.850;4.504;2023-09-30T04:46:23;4.33;;;3.23;;
10191;SDS011;17580;50.850;4.504;2023-09-30T04:48:51;5.03;;;3.20;;
10191;SDS011;17580;50.850;4.504;2023-09-30T04:51:19;4.90;;;3.00;;
10191;SDS011;17580;50.850;4.504;2023-09-30T04:53:46;4.40;;;2.97;;
10191;SDS011;17580;50.850;4.504;2023-09-30T04:56:14;6.97;;;3.40;;
10191;SDS011;17580;50.850;4.504;2023-09-30T04:58:41;12.30;;;4.10;;
10191;SDS011;17580;50.850;4.504;2023-09-30T05:01:09;6.47;;;3.50;;
10191;SDS011;17580;50.850;4.504;2023-09-30T05:03:37;5.23;;;3.43;;
10191;SDS011;17580;50.850;4.504;2023-09-30T05:06:04;4.53;;;2.77;;
10191;SDS011;17580;50.850;4.504;2023-09-30T05:08:34;3.23;;;2.90;;
10191;SDS011;17580;50.850;4.504;2023-09-30T05:11:01;6.20;;;4.03;;
10191;SDS011;17580;50.850;4.504;2023-09-30T05:13:29;3.87;;;2.90;;
10191;SDS011;17580;50.850;4.504;2023-09-30T05:15:59;3.57;;;3.27;;
10191;SDS011;17580;50.850;4.504;2023-09-30T05:18:26;4.47;;;3.70;;
10191;SDS011;17580;50.850;4.504;2023-09-30T05:20:53;4.37;;;3.23;;
10191;SDS011;17580;50.850;4.504;2023-09-30T05:23:21;4.60;;;3.07;;
10191;SDS011;17580;50.850;4.504;2023-09-30T05:25:50;5.17;;;3.90;;
10191;SDS011;17580;50.850;4.504;2023-09-30T05:28:19;3.60;;;3.30;;
10191;SDS011;17580;50.850;4.504;2023-09-30T05:30:47;4.20;;;3.63;;
10191;SDS011;17580;50.850;4.504;2023-09-30T05:33:15;5.43;;;3.50;;
10191;SDS011;17580;50.850;4.504;2023-09-30T05:35:43;5.43;;;3.77;;
10191;SDS011;17580;50.850;4.504;2023-09-30T05:38:10;6.87;;;4.10;;
10191;SDS011;17580;50.850;4.504;2023-09-30T05:40:37;6.07;;;4.30;;
10191;SDS011;17580;50.850;4.504;2023-09-30T05:43:08;6.40;;;3.80;;
10191;SDS011;17580;50.850;4.504;2023-09-30T05:45:38;5.70;;;4.23;;
10191;SDS011;17580;50.850;4.504;2023-09-30T05:48:14;8.47;;;4.70;;
10191;SDS011;17580;50.850;4.504;2023-09-30T05:50:41;10.53;;;5.20;;
10191;SDS011;17580;50.850;4.504;2023-09-30T05:53:09;7.93;;;4.90;;
10191;SDS011;17580;50.850;4.504;2023-09-30T05:55:37;7.07;;;4.87;;
10191;SDS011;17580;50.850;4.504;2023-09-30T05:58:08;8.33;;;5.40;;
10191;SDS011;17580;50.850;4.504;2023-09-30T06:00:39;7.00;;;5.33;;
10191;SDS011;17580;50.850;4.504;2023-09-30T06:03:07;8.63;;;5.27;;
10191;SDS011;17580;50.850;4.504;2023-09-30T06:05:38;7.30;;;5.13;;
10191;SDS011;17580;50.850;4.504;2023-09-30T06:08:07;7.37;;;5.13;;
10191;SDS011;17580;50.850;4.504;2023-09-30T06:10:35;5.97;;;5.37;;
10191;SDS011;17580;50.850;4.504;2023-09-30T06:13:09;8.27;;;5.47;;
10191;SDS011;17580;50.850;4.504;2023-09-30T06:15:36;8.63;;;5.60;;
10191;SDS011;17580;50.850;4.504;2023-09-30T06:18:05;13.17;;;6.20;;
10191;SDS011;17580;50.850;4.504;2023-09-30T06:20:32;6.30;;;5.17;;
10191;SDS011;17580;50.850;4.504;2023-09-30T06:22:59;6.07;;;4.57;;
10191;SDS011;17580;50.850;4.504;2023-09-30T06:25:27;6.90;;;5.27;;
10191;SDS011;17580;50.850;4.504;2023-09-30T06:27:55;8.77;;;4.80;;
10191;SDS011;17580;50.850;4.504;2023-09-30T06:30:24;7.20;;;4.80;;
10191;SDS011;17580;50.850;4.504;2023-09-30T06:32:54;7.70;;;5.40;;
10191;SDS011;17580;50.850;4.504;2023-09-30T06:35:22;10.43;;;5.43;;
10191;SDS011;17580;50.850;4.504;2023-09-30T06:37:49;9.03;;;5.00;;
10191;SDS011;17580;50.850;4.504;2023-09-30T06:40:17;7.77;;;5.53;;
10191;SDS011;17580;50.850;4.504;2023-09-30T06:42:44;8.47;;;5.67;;
10191;SDS011;17580;50.850;4.504;2023-09-30T06:45:11;8.53;;;5.70;;
10191;SDS011;17580;50.850;4.504;2023-09-30T06:47:40;8.07;;;5.70;;
10191;SDS011;17580;50.850;4.504;2023-09-30T06:50:08;8.70;;;5.93;;
10191;SDS011;17580;50.850;4.504;2023-09-30T06:52:37;11.17;;;6.37;;
10191;SDS011;17580;50.850;4.504;2023-09-30T06:55:05;11.70;;;6.30;;
10191;SDS011;17580;50.850;4.504;2023-09-30T06:57:33;11.87;;;6.97;;
10191;SDS011;17580;50.850;4.504;2023-09-30T07:00:00;9.87;;;6.57;;
10191;SDS011;17580;50.850;4.504;2023-09-30T07:02:29;15.40;;;5.20;;
10191;SDS011;17580;50.850;4.504;2023-09-30T07:04:58;13.07;;;5.43;;
10191;SDS011;17580;50.850;4.504;2023-09-30T07:07:25;12.13;;;5.63;;
10191;SDS011;17580;50.850;4.504;2023-09-30T07:09:52;9.23;;;5.13;;
10191;SDS011;17580;50.850;4.504;2023-09-30T07:12:20;16.03;;;5.60;;
10191;SDS011;17580;50.850;4.504;2023-09-30T07:14:47;9.23;;;5.33;;
10191;SDS011;17580;50.850;4.504;2023-09-30T07:17:14;7.20;;;4.43;;
10191;SDS011;17580;50.850;4.504;2023-09-30T07:19:42;9.97;;;4.73;;
10191;SDS011;17580;50.850;4.504;2023-09-30T07:22:11;15.93;;;6.97;;
10191;SDS011;17580;50.850;4.504;2023-09-30T07:24:38;9.50;;;4.50;;
10191;SDS011;17580;50.850;4.504;2023-09-30T07:27:05;10.70;;;4.93;;
10191;SDS011;17580;50.850;4.504;2023-09-30T07:29:33;13.10;;;6.73;;
10191;SDS011;17580;50.850;4.504;2023-09-30T07:32:00;9.47;;;4.97;;
10191;SDS011;17580;50.850;4.504;2023-09-30T07:34:27;14.20;;;5.90;;
10191;SDS011;17580;50.850;4.504;2023-09-30T07:36:54;12.27;;;5.60;;
10191;SDS011;17580;50.850;4.504;2023-09-30T07:39:23;13.03;;;5.27;;
10191;SDS011;17580;50.850;4.504;2023-09-30T07:41:50;16.00;;;5.50;;
10191;SDS011;17580;50.850;4.504;2023-09-30T07:44:17;14.93;;;5.67;;
10191;SDS011;17580;50.850;4.504;2023-09-30T07:46:45;15.03;;;6.30;;
10191;SDS011;17580;50.850;4.504;2023-09-30T07:49:12;7.70;;;5.10;;
10191;SDS011;17580;50.850;4.504;2023-09-30T07:51:39;12.43;;;5.40;;
10191;SDS011;17580;50.850;4.504;2023-09-30T07:54:06;13.23;;;5.63;;
10191;SDS011;17580;50.850;4.504;2023-09-30T07:56:35;16.67;;;6.40;;
10191;SDS011;17580;50.850;4.504;2023-09-30T07:59:02;11.80;;;5.87;;
10191;SDS011;17580;50.850;4.504;2023-09-30T08:01:30;11.27;;;4.80;;
10191;SDS011;17580;50.850;4.504;2023-09-30T08:03:57;13.00;;;5.43;;
10191;SDS011;17580;50.850;4.504;2023-09-30T08:06:24;14.03;;;5.47;;
10191;SDS011;17580;50.850;4.504;2023-09-30T08:08:51;13.10;;;4.57;;
10191;SDS011;17580;50.850;4.504;2023-09-30T08:11:20;14.13;;;5.10;;
10191;SDS011;17580;50.850;4.504;2023-09-30T08:13:48;11.83;;;5.50;;
10191;SDS011;17580;50.850;4.504;2023-09-30T08:16:16;13.43;;;4.90;;
10191;SDS011;17580;50.850;4.504;2023-09-30T08:18:44;11.10;;;5.10;;
10191;SDS011;17580;50.850;4.504;2023-09-30T08:21:11;12.40;;;5.63;;
10191;SDS011;17580;50.850;4.504;2023-09-30T08:23:38;14.97;;;5.03;;
10191;SDS011;17580;50.850;4.504;2023-09-30T08:26:06;9.60;;;4.90;;
10191;SDS011;17580;50.850;4.504;2023-09-30T08:28:33;9.23;;;5.03;;
10191;SDS011;17580;50.850;4.504;2023-09-30T08:31:05;8.33;;;4.57;;
10191;SDS011;17580;50.850;4.504;2023-09-30T08:33:32;9.07;;;4.53;;
10191;SDS011;17580;50.850;4.504;2023-09-30T08:36:01;8.07;;;4.70;;
10191;SDS011;17580;50.850;4.504;2023-09-30T08:38:32;7.27;;;4.27;;
10191;SDS011;17580;50.850;4.504;2023-09-30T08:41:00;8.77;;;4.43;;
10191;SDS011;17580;50.850;4.504;2023-09-30T08:43:28;7.37;;;5.03;;
10191;SDS011;17580;50.850;4.504;2023-09-30T08:45:57;9.73;;;4.37;;
10191;SDS011;17580;50.850;4.504;2023-09-30T08:48:27;8.93;;;4.57;;
10191;SDS011;17580;50.850;4.504;2023-09-30T08:50:54;7.27;;;4.00;;
10191;SDS011;17580;50.850;4.504;2023-09-30T08:53:22;8.97;;;4.30;;
10191;SDS011;17580;50.850;4.504;2023-09-30T08:55:50;10.30;;;5.37;;
10191;SDS011;17580;50.850;4.504;2023-09-30T08:58:19;8.90;;;4.87;;
10191;SDS011;17580;50.850;4.504;2023-09-30T09:00:50;10.03;;;5.13;;
10191;SDS011;17580;50.850;4.504;2023-09-30T09:03:18;6.23;;;4.40;;
10191;SDS011;17580;50.850;4.504;2023-09-30T09:05:47;9.37;;;5.10;;
10191;SDS011;17580;50.850;4.504;2023-09-30T09:08:20;8.27;;;4.90;;
10191;SDS011;17580;50.850;4.504;2023-09-30T09:10:53;8.00;;;4.57;;
10191;SDS011;17580;50.850;4.504;2023-09-30T09:13:21;11.27;;;4.67;;
10191;SDS011;17580;50.850;4.504;2023-09-30T09:15:48;6.47;;;3.60;;
10191;SDS011;17580;50.850;4.504;2023-09-30T09:18:30;7.57;;;4.43;;
10191;SDS011;17580;50.850;4.504;2023-09-30T09:21:09;6.07;;;3.77;;
10191;SDS011;17580;50.850;4.504;2023-09-30T09:23:40;7.40;;;3.80;;
10191;SDS011;17580;50.850;4.504;2023-09-30T09:26:09;4.97;;;3.50;;
10191;SDS011;17580;50.850;4.504;2023-09-30T09:28:36;7.60;;;3.93;;
10191;SDS011;17580;50.850;4.504;2023-09-30T09:33:47;5.43;;;3.77;;
10191;SDS011;17580;50.850;4.504;2023-09-30T09:36:16;5.83;;;3.60;;
10191;SDS011;17580;50.850;4.504;2023-09-30T09:38:45;9.30;;;4.30;;
10191;SDS011;17580;50.850;4.504;2023-09-30T09:41:14;6.07;;;3.33;;
10191;SDS011;17580;50.850;4.504;2023-09-30T09:43:41;9.00;;;4.07;;
10191;SDS011;17580;50.850;4.504;2023-09-30T09:46:09;5.20;;;3.60;;
10191;SDS011;17580;50.850;4.504;2023-09-30T09:48:37;6.10;;;3.93;;
10191;SDS011;17580;50.850;4.504;2023-09-30T09:51:04;9.07;;;3.70;;
10191;SDS011;17580;50.850;4.504;2023-09-30T09:53:35;7.47;;;3.43;;
10191;SDS011;17580;50.850;4.504;2023-09-30T09:56:03;7.27;;;3.80;;
10191;SDS011;17580;50.850;4.504;2023-09-30T09:58:32;7.77;;;4.50;;
10191;SDS011;17580;50.850;4.504;2023-09-30T10:01:01;7.33;;;3.63;;
10191;SDS011;17580;50.850;4.504;2023-09-30T10:03:28;6.43;;;3.57;;
10191;SDS011;17580;50.850;4.504;2023-09-30T10:05:56;7.60;;;3.73;;
10191;SDS011;17580;50.850;4.504;2023-09-30T10:08:28;4.70;;;3.57;;
10191;SDS011;17580;50.850;4.504;2023-09-30T10:10:57;5.93;;;3.33;;
10191;SDS011;17580;50.850;4.504;2023-09-30T10:19:09;5.37;;;3.97;;
10191;SDS011;17580;50.850;4.504;2023-09-30T10:21:36;10.40;;;4.37;;
10191;SDS011;17580;50.850;4.504;2023-09-30T10:29:40;6.43;;;3.17;;
10191;SDS011;17580;50.850;4.504;2023-09-30T10:32:08;5.77;;;3.10;;
10191;SDS011;17580;50.850;4.504;2023-09-30T10:34:35;5.63;;;3.47;;
10191;SDS011;17580;50.850;4.504;2023-09-30T10:39:54;7.47;;;4.13;;
10191;SDS011;17580;50.850;4.504;2023-09-30T10:45:05;6.70;;;3.80;;
10191;SDS011;17580;50.850;4.504;2023-09-30T10:47:36;7.10;;;4.07;;
10191;SDS011;17580;50.850;4.504;2023-09-30T10:50:03;6.87;;;3.63;;
10191;SDS011;17580;50.850;4.504;2023-09-30T10:52:51;7.67;;;4.70;;
10191;SDS011;17580;50.850;4.504;2023-09-30T10:55:18;6.53;;;3.63;;
10191;SDS011;17580;50.850;4.504;2023-09-30T10:57:50;6.60;;;3.83;;
10191;SDS011;17580;50.850;4.504;2023-09-30T11:00:20;6.30;;;3.30;;
10191;SDS011;17580;50.850;4.504;2023-09-30T11:02:48;5.27;;;3.80;;
10191;SDS011;17580;50.850;4.504;2023-09-30T11:05:16;7.47;;;5.20;;
10191;SDS011;17580;50.850;4.504;2023-09-30T11:07:47;6.53;;;4.23;;
10191;SDS011;17580;50.850;4.504;2023-09-30T11:10:16;10.10;;;4.17;;
10191;SDS011;17580;50.850;4.504;2023-09-30T11:12:53;4.20;;;2.77;;
10191;SDS011;17580;50.850;4.504;2023-09-30T11:15:22;4.13;;;3.50;;
10191;SDS011;17580;50.850;4.504;2023-09-30T11:17:49;6.60;;;3.20;;
10191;SDS011;17580;50.850;4.504;2023-09-30T11:20:16;4.60;;;3.20;;
10191;SDS011;17580;50.850;4.504;2023-09-30T11:22:44;7.73;;;4.67;;
10191;SDS011;17580;50.850;4.504;2023-09-30T11:25:15;8.77;;;5.20;;
10191;SDS011;17580;50.850;4.504;2023-09-30T11:27:43;9.27;;;4.20;;
10191;SDS011;17580;50.850;4.504;2023-09-30T11:30:10;4.93;;;3.10;;
10191;SDS011;17580;50.850;4.504;2023-09-30T11:32:39;7.33;;;2.93;;
10191;SDS011;17580;50.850;4.504;2023-09-30T11:35:08;4.73;;;3.27;;
10191;SDS011;17580;50.850;4.504;2023-09-30T11:37:36;7.83;;;3.23;;
10191;SDS011;17580;50.850;4.504;2023-09-30T11:40:10;7.70;;;3.40;;
10191;SDS011;17580;50.850;4.504;2023-09-30T11:42:38;7.60;;;3.47;;
10191;SDS011;17580;50.850;4.504;2023-09-30T11:45:18;5.53;;;2.77;;
10191;SDS011;17580;50.850;4.504;2023-09-30T11:47:47;2.77;;;2.20;;
10191;SDS011;17580;50.850;4.504;2023-09-30T11:50:14;4.13;;;2.70;;
10191;SDS011;17580;50.850;4.504;2023-09-30T11:52:43;5.43;;;2.90;;
10191;SDS011;17580;50.850;4.504;2023-09-30T11:55:12;6.47;;;3.00;;
10191;SDS011;17580;50.850;4.504;2023-09-30T11:57:41;4.10;;;2.83;;
10191;SDS011;17580;50.850;4.504;2023-09-30T12:00:09;10.33;;;3.00;;
10191;SDS011;17580;50.850;4.504;2023-09-30T12:02:39;5.57;;;3.47;;
10191;SDS011;17580;50.850;4.504;2023-09-30T12:05:08;7.50;;;5.17;;
10191;SDS011;17580;50.850;4.504;2023-09-30T12:07:37;6.23;;;3.30;;
10191;SDS011;17580;50.850;4.504;2023-09-30T12:10:06;8.70;;;7.70;;
10191;SDS011;17580;50.850;4.504;2023-09-30T12:12:34;5.67;;;3.57;;
10191;SDS011;17580;50.850;4.504;2023-09-30T12:15:01;6.63;;;3.33;;
10191;SDS011;17580;50.850;4.504;2023-09-30T12:17:28;5.00;;;3.20;;
10191;SDS011;17580;50.850;4.504;2023-09-30T12:19:56;4.50;;;3.10;;
10191;SDS011;17580;50.850;4.504;2023-09-30T12:22:26;3.40;;;2.73;;
10191;SDS011;17580;50.850;4.504;2023-09-30T12:24:53;4.70;;;2.77;;
10191;SDS011;17580;50.850;4.504;2023-09-30T12:27:20;5.43;;;2.80;;
10191;SDS011;17580;50.850;4.504;2023-09-30T12:29:47;4.60;;;2.90;;
10191;SDS011;17580;50.850;4.504;2023-09-30T12:32:14;4.70;;;2.67;;
10191;SDS011;17580;50.850;4.504;2023-09-30T12:34:42;3.97;;;2.57;;
10191;SDS011;17580;50.850;4.504;2023-09-30T12:37:09;5.40;;;2.53;;
10191;SDS011;17580;50.850;4.504;2023-09-30T12:39:38;3.90;;;2.37;;
10191;SDS011;17580;50.850;4.504;2023-09-30T12:42:05;3.87;;;2.67;;
10191;SDS011;17580;50.850;4.504;2023-09-30T12:44:34;3.23;;;2.53;;
10191;SDS011;17580;50.850;4.504;2023-09-30T12:47:01;4.50;;;2.87;;
10191;SDS011;17580;50.850;4.504;2023-09-30T12:49:30;4.33;;;2.67;;
10191;SDS011;17580;50.850;4.504;2023-09-30T12:51:57;3.43;;;2.23;;
10191;SDS011;17580;50.850;4.504;2023-09-30T12:54:24;4.13;;;2.30;;
10191;SDS011;17580;50.850;4.504;2023-09-30T12:56:53;3.77;;;2.50;;
10191;SDS011;17580;50.850;4.504;2023-09-30T12:59:21;5.33;;;2.77;;
10191;SDS011;17580;50.850;4.504;2023-09-30T13:01:50;6.43;;;3.00;;
10191;SDS011;17580;50.850;4.504;2023-09-30T13:04:18;2.87;;;2.60;;
10191;SDS011;17580;50.850;4.504;2023-09-30T13:06:45;4.07;;;2.57;;
10191;SDS011;17580;50.850;4.504;2023-09-30T13:09:15;3.77;;;2.47;;
10191;SDS011;17580;50.850;4.504;2023-09-30T13:11:45;6.10;;;2.60;;
10191;SDS011;17580;50.850;4.504;2023-09-30T13:14:14;6.17;;;2.70;;
10191;SDS011;17580;50.850;4.504;2023-09-30T13:16:43;4.63;;;2.77;;
10191;SDS011;17580;50.850;4.504;2023-09-30T13:19:11;5.67;;;3.00;;
10191;SDS011;17580;50.850;4.504;2023-09-30T13:21:38;4.50;;;2.70;;
10191;SDS011;17580;50.850;4.504;2023-09-30T13:24:06;3.77;;;2.40;;
10191;SDS011;17580;50.850;4.504;2023-09-30T13:26:35;4.80;;;2.87;;
10191;SDS011;17580;50.850;4.504;2023-09-30T13:29:02;2.43;;;2.23;;
10191;SDS011;17580;50.850;4.504;2023-09-30T13:31:31;5.23;;;2.63;;
10191;SDS011;17580;50.850;4.504;2023-09-30T13:33:58;5.90;;;3.17;;
10191;SDS011;17580;50.850;4.504;2023-09-30T13:36:26;3.87;;;2.37;;
10191;SDS011;17580;50.850;4.504;2023-09-30T13:38:53;2.53;;;2.27;;
10191;SDS011;17580;50.850;4.504;2023-09-30T13:41:20;4.73;;;2.77;;
10191;SDS011;17580;50.850;4.504;2023-09-30T13:43:47;4.03;;;2.77;;
10191;SDS011;17580;50.850;4.504;2023-09-30T13:46:15;3.37;;;2.60;;
10191;SDS011;17580;50.850;4.504;2023-09-30T13:48:43;5.20;;;2.47;;
10191;SDS011;17580;50.850;4.504;2023-09-30T13:51:11;3.00;;;2.40;;
10191;SDS011;17580;50.850;4.504;2023-09-30T13:53:39;3.93;;;2.47;;
10191;SDS011;17580;50.850;4.504;2023-09-30T13:56:08;3.47;;;2.10;;
10191;SDS011;17580;50.850;4.504;2023-09-30T13:58:35;3.87;;;2.33;;
10191;SDS011;17580;50.850;4.504;2023-09-30T14:01:02;4.57;;;2.83;;
10191;SDS011;17580;50.850;4.504;2023-09-30T14:03:30;4.13;;;2.63;;
10191;SDS011;17580;50.850;4.504;2023-09-30T14:05:58;5.40;;;2.33;;
10191;SDS011;17580;50.850;4.504;2023-09-30T14:08:26;3.20;;;2.30;;
10191;SDS011;17580;50.850;4.504;2023-09-30T14:10:55;2.67;;;2.00;;
10191;SDS011;17580;50.850;4.504;2023-09-30T14:13:22;3.50;;;2.40;;
10191;SDS011;17580;50.850;4.504;2023-09-30T14:15:49;3.50;;;2.67;;
10191;SDS011;17580;50.850;4.504;2023-09-30T14:18:17;3.30;;;2.40;;
10191;SDS011;17580;50.850;4.504;2023-09-30T14:20:45;4.37;;;2.33;;
10191;SDS011;17580;50.850;4.504;2023-09-30T14:23:14;3.97;;;2.80;;
10191;SDS011;17580;50.850;4.504;2023-09-30T14:25:41;3.33;;;2.20;;
10191;SDS011;17580;50.850;4.504;2023-09-30T14:28:08;4.97;;;3.03;;
10191;SDS011;17580;50.850;4.504;2023-09-30T14:30:35;5.30;;;2.57;;
10191;SDS011;17580;50.850;4.504;2023-09-30T14:33:03;3.63;;;2.63;;
10191;SDS011;17580;50.850;4.504;2023-09-30T14:35:32;3.27;;;2.50;;
10191;SDS011;17580;50.850;4.504;2023-09-30T14:38:00;4.00;;;2.53;;
10191;SDS011;17580;50.850;4.504;2023-09-30T14:40:28;5.63;;;2.50;;
10191;SDS011;17580;50.850;4.504;2023-09-30T14:42:56;2.23;;;2.00;;
10191;SDS011;17580;50.850;4.504;2023-09-30T14:45:23;3.93;;;2.30;;
10191;SDS011;17580;50.850;4.504;2023-09-30T14:47:50;3.53;;;2.10;;
10191;SDS011;17580;50.850;4.504;2023-09-30T14:50:17;2.50;;;1.97;;
10191;SDS011;17580;50.850;4.504;2023-09-30T14:52:44;3.00;;;2.30;;
10191;SDS011;17580;50.850;4.504;2023-09-30T14:55:12;2.67;;;2.00;;
10191;SDS011;17580;50.850;4.504;2023-09-30T14:57:42;3.13;;;2.10;;
10191;SDS011;17580;50.850;4.504;2023-09-30T15:00:10;4.17;;;2.13;;
10191;SDS011;17580;50.850;4.504;2023-09-30T15:02:37;3.67;;;2.37;;
10191;SDS011;17580;50.850;4.504;2023-09-30T15:05:06;4.67;;;2.30;;
10191;SDS011;17580;50.850;4.504;2023-09-30T15:07:34;3.83;;;2.30;;
10191;SDS011;17580;50.850;4.504;2023-09-30T15:10:02;3.07;;;2.00;;